createdAt,value
2018-06-03T00:00:25.890Z,1016.40
2018-06-03T00:01:25.882Z,1016.39
2018-06-03T00:02:25.869Z,1016.39
2018-06-03T00:03:25.872Z,1016.35
2018-06-03T00:04:25.865Z,1016.37
2018-06-03T00:05:25.831Z,1016.36
2018-06-03T00:06:25.817Z,1016.37
2018-06-03T00:07:25.804Z,1016.39
2018-06-03T00:08:25.796Z,1016.36
2018-06-03T00:09:25.798Z,1016.33
2018-06-03T00:10:25.763Z,1016.33
2018-06-03T00:11:25.749Z,1016.34
2018-06-03T00:12:25.740Z,1016.32
2018-06-03T00:13:25.746Z,1016.33
2018-06-03T00:14:25.731Z,1016.34
2018-06-03T00:15:25.700Z,1016.33
2018-06-03T00:16:25.696Z,1016.33
2018-06-03T00:17:25.691Z,1016.31
2018-06-03T00:18:25.665Z,1016.30
2018-06-03T00:19:25.672Z,1016.36
2018-06-03T00:20:25.656Z,1016.30
2018-06-03T00:21:25.627Z,1016.31
2018-06-03T00:22:25.616Z,1016.29
2018-06-03T00:23:25.601Z,1016.30
2018-06-03T00:24:25.591Z,1016.27
2018-06-03T00:25:25.598Z,1016.25
2018-06-03T00:26:25.567Z,1016.26
2018-06-03T00:27:25.553Z,1016.27
2018-06-03T00:28:25.539Z,1016.23
2018-06-03T00:29:25.531Z,1016.27
2018-06-03T00:30:25.538Z,1016.22
2018-06-03T00:31:25.518Z,1016.21
2018-06-03T00:32:25.492Z,1016.22
2018-06-03T00:33:25.484Z,1016.24
2018-06-03T00:34:25.495Z,1016.21
2018-06-03T00:35:25.449Z,1016.23
2018-06-03T00:36:25.452Z,1016.25
2018-06-03T00:37:25.454Z,1016.22
2018-06-03T00:38:25.414Z,1016.22
2018-06-03T00:39:25.405Z,1016.21
2018-06-03T00:40:25.388Z,1016.21
2018-06-03T00:41:25.393Z,1016.20
2018-06-03T00:42:25.382Z,1016.18
2018-06-03T00:43:25.351Z,1016.18
2018-06-03T00:44:25.357Z,1016.15
2018-06-03T00:45:25.327Z,1016.18
2018-06-03T00:46:25.315Z,1016.15
2018-06-03T00:47:25.314Z,1016.14
2018-06-03T00:48:25.307Z,1016.15
2018-06-03T00:49:25.275Z,1016.15
2018-06-03T00:50:25.267Z,1016.14
2018-06-03T00:51:25.253Z,1016.16
2018-06-03T00:52:25.238Z,1016.17
2018-06-03T00:53:25.245Z,1016.13
2018-06-03T00:54:25.224Z,1016.16
2018-06-03T00:55:25.197Z,1016.15
2018-06-03T00:56:25.187Z,1016.15
2018-06-03T00:57:25.183Z,1016.17
2018-06-03T00:58:25.162Z,1016.16
2018-06-03T00:59:25.151Z,1016.16
2018-06-03T01:00:25.143Z,1016.10
2018-06-03T01:01:25.123Z,1016.12
2018-06-03T01:02:25.128Z,1016.12
2018-06-03T01:03:25.099Z,1016.12
2018-06-03T01:04:25.103Z,1016.11
2018-06-03T01:05:25.077Z,1016.06
2018-06-03T01:06:25.062Z,1016.08
2018-06-03T01:07:25.051Z,1016.08
2018-06-03T01:08:25.042Z,1016.07
2018-06-03T01:09:25.037Z,1016.09
2018-06-03T01:10:25.011Z,1016.07
2018-06-03T01:11:25.000Z,1016.07
2018-06-03T01:12:24.984Z,1016.04
2018-06-03T01:13:24.977Z,1016.05
2018-06-03T01:14:24.979Z,1016.08
2018-06-03T01:15:24.949Z,1016.05
2018-06-03T01:16:24.939Z,1016.05
2018-06-03T01:17:24.927Z,1016.06
2018-06-03T01:18:24.920Z,1016.04
2018-06-03T01:19:24.896Z,1016.07
2018-06-03T01:20:24.900Z,1016.06
2018-06-03T01:21:24.875Z,1016.04
2018-06-03T01:22:24.865Z,1016.09
2018-06-03T01:23:24.844Z,1016.09
2018-06-03T01:24:24.856Z,1016.07
2018-06-03T01:25:24.828Z,1016.09
2018-06-03T01:26:24.830Z,1016.06
2018-06-03T01:27:24.800Z,1016.09
2018-06-03T01:28:24.803Z,1016.05
2018-06-03T01:29:24.789Z,1016.06
2018-06-03T01:30:24.758Z,1015.99
2018-06-03T01:31:24.744Z,1016.01
2018-06-03T01:32:24.735Z,1016.03
2018-06-03T01:33:24.742Z,1016.04
2018-06-03T01:34:24.727Z,1016.06
2018-06-03T01:35:24.698Z,1016.05
2018-06-03T01:36:24.684Z,1016.02
2018-06-03T01:37:24.670Z,1016.04
2018-06-03T01:38:24.662Z,1016.07
2018-06-03T01:39:24.672Z,1016.09
2018-06-03T01:40:24.635Z,1016.08
2018-06-03T01:41:24.621Z,1016.07
2018-06-03T01:42:24.607Z,1016.07
2018-06-03T01:43:24.610Z,1016.06
2018-06-03T01:44:24.575Z,1016.03
2018-06-03T01:45:24.567Z,1016.05
2018-06-03T01:46:24.559Z,1016.05
2018-06-03T01:47:24.567Z,1016.02
2018-06-03T01:48:24.530Z,1016.03
2018-06-03T01:49:24.530Z,1016.00
2018-06-03T01:50:45.519Z,1015.97
2018-06-03T01:51:24.495Z,1015.98
2018-06-03T01:52:24.478Z,1015.97
2018-06-03T01:53:24.469Z,1015.96
2018-06-03T01:54:24.453Z,1015.98
2018-06-03T01:55:24.499Z,1015.95
2018-06-03T01:56:24.422Z,1015.99
2018-06-03T01:57:24.412Z,1015.95
2018-06-03T01:58:24.393Z,1015.97
2018-06-03T01:59:24.393Z,1015.95
2018-06-03T02:00:24.387Z,1015.92
2018-06-03T02:01:24.361Z,1015.96
2018-06-03T02:02:24.354Z,1015.91
2018-06-03T02:03:24.333Z,1015.91
2018-06-03T02:04:24.336Z,1015.93
2018-06-03T02:05:24.322Z,1015.93
2018-06-03T02:06:24.296Z,1015.93
2018-06-03T02:07:24.283Z,1015.95
2018-06-03T02:08:24.272Z,1015.91
2018-06-03T02:09:24.274Z,1015.91
2018-06-03T02:10:24.245Z,1015.90
2018-06-03T02:11:24.227Z,1015.88
2018-06-03T02:12:24.209Z,1015.88
2018-06-03T02:13:24.203Z,1015.90
2018-06-03T02:14:24.193Z,1015.90
2018-06-03T02:15:24.205Z,1015.87
2018-06-03T02:16:24.168Z,1015.88
2018-06-03T02:17:24.155Z,1015.89
2018-06-03T02:18:24.145Z,1015.85
2018-06-03T02:19:24.123Z,1015.84
2018-06-03T02:20:24.129Z,1015.83
2018-06-03T02:21:24.101Z,1015.83
2018-06-03T02:22:24.086Z,1015.85
2018-06-03T02:23:24.073Z,1015.81
2018-06-03T02:24:24.066Z,1015.85
2018-06-03T02:25:24.066Z,1015.81
2018-06-03T02:26:24.033Z,1015.84
2018-06-03T02:27:24.021Z,1015.84
2018-06-03T02:28:24.009Z,1015.84
2018-06-03T02:29:23.993Z,1015.80
2018-06-03T02:30:23.993Z,1015.80
2018-06-03T02:31:23.966Z,1015.80
2018-06-03T02:32:23.954Z,1015.82
2018-06-03T02:33:23.943Z,1015.81
2018-06-03T02:34:23.925Z,1015.82
2018-06-03T02:35:23.920Z,1015.81
2018-06-03T02:36:23.921Z,1015.80
2018-06-03T02:37:23.884Z,1015.78
2018-06-03T02:38:23.886Z,1015.77
2018-06-03T02:39:23.861Z,1015.77
2018-06-03T02:40:23.851Z,1015.77
2018-06-03T02:41:23.851Z,1015.75
2018-06-03T02:42:23.821Z,1015.74
2018-06-03T02:43:23.807Z,1015.75
2018-06-03T02:44:23.793Z,1015.75
2018-06-03T02:45:23.782Z,1015.74
2018-06-03T02:46:23.769Z,1015.77
2018-06-03T02:47:23.773Z,1015.75
2018-06-03T02:48:23.759Z,1015.75
2018-06-03T02:49:23.726Z,1015.77
2018-06-03T02:50:23.714Z,1015.79
2018-06-03T02:51:23.704Z,1015.74
2018-06-03T02:52:23.711Z,1015.78
2018-06-03T02:53:23.695Z,1015.76
2018-06-03T02:54:23.672Z,1015.79
2018-06-03T02:55:23.659Z,1015.79
2018-06-03T02:56:23.641Z,1015.78
2018-06-03T02:57:23.646Z,1015.78
2018-06-03T02:58:23.607Z,1015.77
2018-06-03T02:59:23.618Z,1015.76
2018-06-03T03:00:23.584Z,1015.77
2018-06-03T03:01:23.583Z,1015.77
2018-06-03T03:02:23.558Z,1015.75
2018-06-03T03:03:23.549Z,1015.75
2018-06-03T03:04:23.555Z,1015.72
2018-06-03T03:05:23.523Z,1015.77
2018-06-03T03:06:23.515Z,1015.73
2018-06-03T03:07:23.497Z,1015.73
2018-06-03T03:08:23.485Z,1015.78
2018-06-03T03:09:23.490Z,1015.76
2018-06-03T03:10:23.457Z,1015.75
2018-06-03T03:11:23.439Z,1015.73
2018-06-03T03:12:23.433Z,1015.75
2018-06-03T03:13:23.419Z,1015.74
2018-06-03T03:14:23.425Z,1015.73
2018-06-03T03:15:23.400Z,1015.76
2018-06-03T03:16:23.381Z,1015.72
2018-06-03T03:17:23.368Z,1015.71
2018-06-03T03:18:23.356Z,1015.72
2018-06-03T03:19:23.343Z,1015.71
2018-06-03T03:20:23.362Z,1015.75
2018-06-03T03:21:23.324Z,1015.74
2018-06-03T03:22:23.308Z,1015.74
2018-06-03T03:23:23.290Z,1015.70
2018-06-03T03:24:23.279Z,1015.72
2018-06-03T03:25:23.264Z,1015.75
2018-06-03T03:26:23.271Z,1015.73
2018-06-03T03:27:23.238Z,1015.72
2018-06-03T03:28:23.228Z,1015.68
2018-06-03T03:29:23.215Z,1015.71
2018-06-03T03:30:23.203Z,1015.74
2018-06-03T03:31:23.205Z,1015.74
2018-06-03T03:32:23.176Z,1015.73
2018-06-03T03:33:23.159Z,1015.71
2018-06-03T03:34:23.148Z,1015.71
2018-06-03T03:35:23.137Z,1015.69
2018-06-03T03:36:23.124Z,1015.73
2018-06-03T03:37:23.127Z,1015.74
2018-06-03T03:38:23.092Z,1015.74
2018-06-03T03:39:23.087Z,1015.75
2018-06-03T03:40:23.068Z,1015.76
2018-06-03T03:41:23.055Z,1015.76
2018-06-03T03:42:23.076Z,1015.76
2018-06-03T03:43:23.030Z,1015.73
2018-06-03T03:44:23.017Z,1015.75
2018-06-03T03:45:23.006Z,1015.72
2018-06-03T03:46:22.996Z,1015.77
2018-06-03T03:47:22.998Z,1015.75
2018-06-03T03:48:22.982Z,1015.72
2018-06-03T03:49:22.957Z,1015.76
2018-06-03T03:50:22.942Z,1015.75
2018-06-03T03:51:22.947Z,1015.74
2018-06-03T03:52:22.930Z,1015.75
2018-06-03T03:53:22.908Z,1015.71
2018-06-03T03:54:22.892Z,1015.73
2018-06-03T03:55:22.881Z,1015.76
2018-06-03T03:56:22.862Z,1015.73
2018-06-03T03:57:22.870Z,1015.75
2018-06-03T03:58:22.866Z,1015.76
2018-06-03T03:59:22.830Z,1015.74
2018-06-03T04:00:22.815Z,1015.76
2018-06-03T04:01:22.798Z,1015.74
2018-06-03T04:02:22.815Z,1015.75
2018-06-03T04:03:22.793Z,1015.78
2018-06-03T04:04:22.790Z,1015.79
2018-06-03T04:05:22.754Z,1015.78
2018-06-03T04:06:22.741Z,1015.77
2018-06-03T04:07:22.725Z,1015.76
2018-06-03T04:08:22.713Z,1015.80
2018-06-03T04:09:22.715Z,1015.78
2018-06-03T04:10:22.691Z,1015.80
2018-06-03T04:11:22.674Z,1015.73
2018-06-03T04:12:22.659Z,1015.73
2018-06-03T04:13:22.660Z,1015.74
2018-06-03T04:14:22.647Z,1015.74
2018-06-03T04:15:22.623Z,1015.74
2018-06-03T04:16:22.606Z,1015.73
2018-06-03T04:17:22.592Z,1015.71
2018-06-03T04:18:22.577Z,1015.72
2018-06-03T04:19:22.577Z,1015.75
2018-06-03T04:20:22.555Z,1015.81
2018-06-03T04:21:22.542Z,1015.75
2018-06-03T04:22:22.531Z,1015.79
2018-06-03T04:23:22.513Z,1015.78
2018-06-03T04:24:22.515Z,1015.77
2018-06-03T04:25:22.483Z,1015.77
2018-06-03T04:26:22.487Z,1015.75
2018-06-03T04:27:22.459Z,1015.74
2018-06-03T04:28:22.450Z,1015.76
2018-06-03T04:29:22.433Z,1015.75
2018-06-03T04:30:22.454Z,1015.75
2018-06-03T04:31:22.420Z,1015.76
2018-06-03T04:32:22.396Z,1015.77
2018-06-03T04:33:22.375Z,1015.77
2018-06-03T04:34:22.369Z,1015.79
2018-06-03T04:35:22.348Z,1015.78
2018-06-03T04:36:22.355Z,1015.76
2018-06-03T04:37:22.355Z,1015.81
2018-06-03T04:38:22.306Z,1015.83
2018-06-03T04:39:22.298Z,1015.81
2018-06-03T04:40:22.304Z,1015.84
2018-06-03T04:41:22.339Z,1015.87
2018-06-03T04:42:22.256Z,1015.85
2018-06-03T04:43:22.244Z,1015.86
2018-06-03T04:44:22.232Z,1015.84
2018-06-03T04:45:22.217Z,1015.83
2018-06-03T04:46:22.204Z,1015.84
2018-06-03T04:47:22.206Z,1015.86
2018-06-03T04:48:22.180Z,1015.88
2018-06-03T04:49:22.166Z,1015.88
2018-06-03T04:50:22.147Z,1015.85
2018-06-03T04:51:22.139Z,1015.90
2018-06-03T04:52:22.150Z,1015.89
2018-06-03T04:53:22.110Z,1015.89
2018-06-03T04:54:22.104Z,1015.87
2018-06-03T04:55:22.081Z,1015.87
2018-06-03T04:56:22.070Z,1015.86
2018-06-03T04:57:22.055Z,1015.91
2018-06-03T04:58:22.053Z,1015.90
2018-06-03T04:59:22.030Z,1015.91
2018-06-03T05:00:22.017Z,1015.90
2018-06-03T05:01:22.001Z,1015.90
2018-06-03T05:02:21.989Z,1015.93
2018-06-03T05:03:21.993Z,1015.95
2018-06-03T05:04:21.964Z,1015.96
2018-06-03T05:05:21.950Z,1015.98
2018-06-03T05:06:21.937Z,1015.98
2018-06-03T05:07:21.935Z,1016.00
2018-06-03T05:08:21.909Z,1016.03
2018-06-03T05:09:21.895Z,1016.04
2018-06-03T05:10:21.892Z,1016.08
2018-06-03T05:11:21.866Z,1016.07
2018-06-03T05:12:21.871Z,1016.06
2018-06-03T05:13:21.858Z,1016.06
2018-06-03T05:14:21.829Z,1016.06
2018-06-03T05:15:21.816Z,1016.07
2018-06-03T05:16:21.807Z,1016.09
2018-06-03T05:17:21.787Z,1016.08
2018-06-03T05:18:21.798Z,1016.08
2018-06-03T05:19:21.760Z,1016.08
2018-06-03T05:20:21.765Z,1016.10
2018-06-03T05:21:21.744Z,1016.12
2018-06-03T05:22:21.723Z,1016.12
2018-06-03T05:23:21.766Z,1016.17
2018-06-03T05:24:21.697Z,1016.15
2018-06-03T05:25:21.688Z,1016.19
2018-06-03T05:26:21.675Z,1016.16
2018-06-03T05:27:21.665Z,1016.17
2018-06-03T05:28:21.668Z,1016.18
2018-06-03T05:29:21.633Z,1016.20
2018-06-03T05:30:21.625Z,1016.21
2018-06-03T05:31:21.608Z,1016.20
2018-06-03T05:32:21.602Z,1016.23
2018-06-03T05:33:21.586Z,1016.21
2018-06-03T05:34:21.586Z,1016.24
2018-06-03T05:35:21.557Z,1016.25
2018-06-03T05:36:21.560Z,1016.29
2018-06-03T05:37:21.533Z,1016.25
2018-06-03T05:38:21.519Z,1016.25
2018-06-03T05:39:21.505Z,1016.26
2018-06-03T05:40:21.512Z,1016.23
2018-06-03T05:41:21.490Z,1016.26
2018-06-03T05:42:21.467Z,1016.23
2018-06-03T05:43:21.458Z,1016.22
2018-06-03T05:44:21.446Z,1016.18
2018-06-03T05:45:21.435Z,1016.19
2018-06-03T05:46:21.433Z,1016.20
2018-06-03T05:47:21.412Z,1016.19
2018-06-03T05:48:21.390Z,1016.15
2018-06-03T05:49:21.390Z,1016.13
2018-06-03T05:50:21.371Z,1016.19
2018-06-03T05:51:21.377Z,1016.14
2018-06-03T05:52:21.348Z,1016.15
2018-06-03T05:53:21.336Z,1016.20
2018-06-03T05:54:21.323Z,1016.20
2018-06-03T05:55:21.316Z,1016.21
2018-06-03T05:56:21.329Z,1016.23
2018-06-03T05:57:21.287Z,1016.27
2018-06-03T05:58:21.274Z,1016.25
2018-06-03T05:59:21.263Z,1016.26
2018-06-03T06:00:21.252Z,1016.28
2018-06-03T06:01:21.239Z,1016.29
2018-06-03T06:02:21.243Z,1016.29
2018-06-03T06:03:21.217Z,1016.30
2018-06-03T06:04:21.221Z,1016.34
2018-06-03T06:05:21.191Z,1016.35
2018-06-03T06:06:21.179Z,1016.35
2018-06-03T06:07:21.186Z,1016.37
2018-06-03T06:08:21.151Z,1016.35
2018-06-03T06:09:21.163Z,1016.39
2018-06-03T06:10:21.137Z,1016.41
2018-06-03T06:11:21.116Z,1016.39
2018-06-03T06:12:21.109Z,1016.40
2018-06-03T06:13:21.101Z,1016.40
2018-06-03T06:14:21.102Z,1016.40
2018-06-03T06:15:21.074Z,1016.42
2018-06-03T06:16:21.067Z,1016.44
2018-06-03T06:17:21.056Z,1016.46
2018-06-03T06:18:21.040Z,1016.46
2018-06-03T06:19:21.045Z,1016.47
2018-06-03T06:20:21.020Z,1016.48
2018-06-03T06:21:21.005Z,1016.48
2018-06-03T06:22:20.993Z,1016.49
2018-06-03T06:23:21.006Z,1016.49
2018-06-03T06:24:20.977Z,1016.51
2018-06-03T06:25:20.979Z,1016.52
2018-06-03T06:26:20.947Z,1016.49
2018-06-03T06:27:20.939Z,1016.52
2018-06-03T06:28:20.940Z,1016.50
2018-06-03T06:29:20.935Z,1016.51
2018-06-03T06:30:20.903Z,1016.47
2018-06-03T06:31:20.887Z,1016.45
2018-06-03T06:32:20.885Z,1016.49
2018-06-03T06:33:20.867Z,1016.51
2018-06-03T06:34:20.890Z,1016.49
2018-06-03T06:35:20.867Z,1016.49
2018-06-03T06:36:20.840Z,1016.49
2018-06-03T06:37:20.843Z,1016.49
2018-06-03T06:38:20.815Z,1016.51
2018-06-03T06:39:20.821Z,1016.53
2018-06-03T06:40:20.789Z,1016.51
2018-06-03T06:41:20.813Z,1016.53
2018-06-03T06:42:20.771Z,1016.52
2018-06-03T06:43:20.757Z,1016.52
2018-06-03T06:44:20.765Z,1016.54
2018-06-03T06:45:20.740Z,1016.52
2018-06-03T06:46:20.755Z,1016.52
2018-06-03T06:47:20.714Z,1016.49
2018-06-03T06:48:20.703Z,1016.50
2018-06-03T06:49:20.712Z,1016.55
2018-06-03T06:50:20.684Z,1016.49
2018-06-03T06:51:20.670Z,1016.54
2018-06-03T06:52:20.667Z,1016.55
2018-06-03T06:53:20.652Z,1016.56
2018-06-03T06:54:20.646Z,1016.58
2018-06-03T06:55:20.646Z,1016.60
2018-06-03T06:56:20.614Z,1016.62
2018-06-03T06:57:20.637Z,1016.64
2018-06-03T06:58:20.596Z,1016.68
2018-06-03T06:59:20.579Z,1016.66
2018-06-03T07:00:20.591Z,1016.70
2018-06-03T07:01:20.563Z,1016.66
2018-06-03T07:02:20.554Z,1016.68
2018-06-03T07:03:20.541Z,1016.68
2018-06-03T07:04:20.526Z,1016.69
2018-06-03T07:05:20.537Z,1016.67
2018-06-03T07:06:20.507Z,1016.66
2018-06-03T07:07:20.497Z,1016.70
2018-06-03T07:08:20.499Z,1016.70
2018-06-03T07:09:20.482Z,1016.67
2018-06-03T07:10:20.480Z,1016.73
2018-06-03T07:11:20.457Z,1016.68
2018-06-03T07:12:20.446Z,1016.70
2018-06-03T07:13:20.449Z,1016.67
2018-06-03T07:14:20.426Z,1016.64
2018-06-03T07:15:20.406Z,1016.69
2018-06-03T07:16:20.402Z,1016.67
2018-06-03T07:17:20.388Z,1016.66
2018-06-03T07:18:20.394Z,1016.65
2018-06-03T07:19:20.366Z,1016.61
2018-06-03T07:20:20.359Z,1016.65
2018-06-03T07:21:20.352Z,1016.63
2018-06-03T07:22:20.342Z,1016.68
2018-06-03T07:23:20.394Z,1016.61
2018-06-03T07:24:20.319Z,1016.63
2018-06-03T07:25:20.318Z,1016.62
2018-06-03T07:26:20.295Z,1016.62
2018-06-03T07:27:20.308Z,1016.60
2018-06-03T07:28:20.272Z,1016.61
2018-06-03T07:29:20.264Z,1016.61
2018-06-03T07:30:20.254Z,1016.66
2018-06-03T07:31:20.243Z,1016.60
2018-06-03T07:32:20.225Z,1016.63
2018-06-03T07:33:20.231Z,1016.66
2018-06-03T07:34:20.207Z,1016.66
2018-06-03T07:35:20.197Z,1016.69
2018-06-03T07:36:20.190Z,1016.70
2018-06-03T07:37:20.172Z,1016.70
2018-06-03T07:38:20.192Z,1016.71
2018-06-03T07:39:20.171Z,1016.72
2018-06-03T07:40:20.141Z,1016.68
2018-06-03T07:41:20.128Z,1016.67
2018-06-03T07:42:20.132Z,1016.68
2018-06-03T07:43:20.114Z,1016.73
2018-06-03T07:44:20.125Z,1016.73
2018-06-03T07:45:20.089Z,1016.71
2018-06-03T07:46:20.077Z,1016.75
2018-06-03T07:47:20.066Z,1016.73
2018-06-03T07:48:20.061Z,1016.73
2018-06-03T07:49:20.063Z,1016.72
2018-06-03T07:50:20.075Z,1016.71
2018-06-03T07:51:20.028Z,1016.73
2018-06-03T07:52:20.021Z,1016.73
2018-06-03T07:53:20.011Z,1016.72
2018-06-03T07:54:19.999Z,1016.72
2018-06-03T07:55:20.002Z,1016.71
2018-06-03T07:56:19.998Z,1016.73
2018-06-03T07:57:19.992Z,1016.74
2018-06-03T07:58:19.951Z,1016.69
2018-06-03T07:59:19.962Z,1016.71
2018-06-03T08:00:19.939Z,1016.70
2018-06-03T08:01:19.925Z,1016.69
2018-06-03T08:02:19.915Z,1016.68
2018-06-03T08:03:19.904Z,1016.69
2018-06-03T08:04:19.893Z,1016.70
2018-06-03T08:05:19.902Z,1016.70
2018-06-03T08:06:19.874Z,1016.68
2018-06-03T08:07:19.863Z,1016.67
2018-06-03T08:08:19.855Z,1016.66
2018-06-03T08:09:19.845Z,1016.68
2018-06-03T08:10:19.830Z,1016.66
2018-06-03T08:11:19.838Z,1016.65
2018-06-03T08:12:19.813Z,1016.63
2018-06-03T08:13:19.803Z,1016.65
2018-06-03T08:14:19.790Z,1016.65
2018-06-03T08:15:19.803Z,1016.61
2018-06-03T08:16:19.773Z,1016.64
2018-06-03T08:17:19.761Z,1016.60
2018-06-03T08:18:19.751Z,1016.59
2018-06-03T08:19:19.741Z,1016.61
2018-06-03T08:20:19.733Z,1016.61
2018-06-03T08:21:19.738Z,1016.60
2018-06-03T08:22:19.728Z,1016.61
2018-06-03T08:23:19.705Z,1016.60
2018-06-03T08:24:19.695Z,1016.57
2018-06-03T08:25:19.687Z,1016.58
2018-06-03T08:26:19.690Z,1016.56
2018-06-03T08:27:19.663Z,1016.58
2018-06-03T08:28:19.662Z,1016.70
2018-06-03T08:29:19.652Z,1016.66
2018-06-03T08:30:19.636Z,1016.67
2018-06-03T08:31:19.644Z,1016.62
2018-06-03T08:32:19.620Z,1016.64
2018-06-03T08:33:19.607Z,1016.63
2018-06-03T08:34:19.590Z,1016.65
2018-06-03T08:35:19.592Z,1016.65
2018-06-03T08:36:19.593Z,1016.67
2018-06-03T08:37:19.571Z,1016.63
2018-06-03T08:38:19.557Z,1016.63
2018-06-03T08:39:19.643Z,1016.62
2018-06-03T08:40:19.545Z,1016.57
2018-06-03T08:41:19.553Z,1016.61
2018-06-03T08:42:19.526Z,1016.59
2018-06-03T08:43:19.515Z,1016.61
2018-06-03T08:44:19.517Z,1016.59
2018-06-03T08:45:19.528Z,1016.58
2018-06-03T08:46:19.490Z,1016.59
2018-06-03T08:47:19.480Z,1016.59
2018-06-03T08:48:19.476Z,1016.63
2018-06-03T08:49:19.465Z,1016.61
2018-06-03T08:50:19.458Z,1016.58
2018-06-03T08:51:19.463Z,1016.63
2018-06-03T08:52:19.439Z,1016.61
2018-06-03T08:53:19.437Z,1016.64
2018-06-03T08:54:19.436Z,1016.62
2018-06-03T08:55:19.415Z,1016.57
2018-06-03T08:56:19.408Z,1016.58
2018-06-03T08:57:19.403Z,1016.57
2018-06-03T08:58:19.395Z,1016.60
2018-06-03T08:59:19.397Z,1016.58
2018-06-03T09:00:19.372Z,1016.59
2018-06-03T09:01:19.360Z,1016.59
2018-06-03T09:02:19.350Z,1016.60
2018-06-03T09:03:19.361Z,1016.61
2018-06-03T09:04:19.331Z,1016.60
2018-06-03T09:05:19.332Z,1016.57
2018-06-03T09:06:19.312Z,1016.54
2018-06-03T09:07:19.305Z,1016.57
2018-06-03T09:08:19.300Z,1016.56
2018-06-03T09:09:19.305Z,1016.58
2018-06-03T09:10:19.274Z,1016.57
2018-06-03T09:11:19.289Z,1016.55
2018-06-03T09:12:19.257Z,1016.53
2018-06-03T09:13:19.256Z,1016.54
2018-06-03T09:14:19.258Z,1016.56
2018-06-03T09:15:19.226Z,1016.52
2018-06-03T09:16:19.226Z,1016.55
2018-06-03T09:17:19.217Z,1016.54
2018-06-03T09:18:19.206Z,1016.56
2018-06-03T09:19:19.196Z,1016.54
2018-06-03T09:20:19.203Z,1016.54
2018-06-03T09:21:19.193Z,1016.56
2018-06-03T09:22:19.178Z,1016.52
2018-06-03T09:23:19.161Z,1016.55
2018-06-03T09:24:19.161Z,1016.51
2018-06-03T09:25:19.135Z,1016.50
2018-06-03T09:26:19.129Z,1016.48
2018-06-03T09:27:19.137Z,1016.50
2018-06-03T09:28:19.112Z,1016.52
2018-06-03T09:29:19.103Z,1016.51
2018-06-03T09:30:19.102Z,1016.51
2018-06-03T09:31:19.082Z,1016.56
2018-06-03T09:32:19.071Z,1016.50
2018-06-03T09:33:19.081Z,1016.51
2018-06-03T09:34:19.055Z,1016.53
2018-06-03T09:35:19.069Z,1016.52
2018-06-03T09:36:19.036Z,1016.53
2018-06-03T09:37:19.029Z,1016.50
2018-06-03T09:38:19.018Z,1016.52
2018-06-03T09:39:19.008Z,1016.56
2018-06-03T09:40:19.001Z,1016.52
2018-06-03T09:41:19.008Z,1016.52
2018-06-03T09:42:18.984Z,1016.54
2018-06-03T09:43:18.976Z,1016.57
2018-06-03T09:44:19.028Z,1016.55
2018-06-03T09:45:18.958Z,1016.53
2018-06-03T09:46:18.952Z,1016.63
2018-06-03T09:47:18.955Z,1016.61
2018-06-03T09:48:18.927Z,1016.72
2018-06-03T09:49:18.944Z,1016.69
2018-06-03T09:50:18.914Z,1016.57
2018-06-03T09:51:18.903Z,1016.58
2018-06-03T09:52:18.893Z,1016.53
2018-06-03T09:53:18.915Z,1016.58
2018-06-03T09:54:18.877Z,1016.57
2018-06-03T09:55:18.882Z,1016.59
2018-06-03T09:56:18.863Z,1016.58
2018-06-03T09:57:18.856Z,1016.57
2018-06-03T09:58:18.846Z,1016.54
2018-06-03T09:59:18.835Z,1016.54
2018-06-03T10:00:18.857Z,1016.55
2018-06-03T10:01:18.841Z,1016.55
2018-06-03T10:02:18.817Z,1016.73
2018-06-03T10:03:18.809Z,1016.80
2018-06-03T10:04:18.796Z,1016.77
2018-06-03T10:05:18.794Z,1016.82
2018-06-03T10:06:18.806Z,1016.85
2018-06-03T10:07:18.786Z,1016.79
2018-06-03T10:08:18.784Z,1016.82
2018-06-03T10:09:18.771Z,1016.82
2018-06-03T10:10:18.801Z,1016.79
2018-06-03T10:11:18.783Z,1016.81
2018-06-03T10:12:18.760Z,1016.87
2018-06-03T10:13:18.758Z,1016.82
2018-06-03T10:14:18.751Z,1016.73
2018-06-03T10:15:18.757Z,1016.55
2018-06-03T10:16:18.746Z,1016.51
2018-06-03T10:17:18.756Z,1016.53
2018-06-03T10:18:18.740Z,1016.50
2018-06-03T10:19:18.737Z,1016.60
2018-06-03T10:20:18.738Z,1016.44
2018-06-03T10:21:18.747Z,1016.47
2018-06-03T10:22:18.743Z,1016.47
2018-06-03T10:23:18.747Z,1016.44
2018-06-03T10:24:18.720Z,1016.41
2018-06-03T10:25:18.717Z,1016.36
2018-06-03T10:26:18.711Z,1016.38
2018-06-03T10:27:18.708Z,1016.40
2018-06-03T10:28:18.706Z,1016.37
2018-06-03T10:29:18.715Z,1016.38
2018-06-03T10:30:18.696Z,1016.56
2018-06-03T10:31:18.686Z,1016.68
2018-06-03T10:32:18.695Z,1016.66
2018-06-03T10:33:18.683Z,1016.66
2018-06-03T10:34:18.692Z,1016.64
2018-06-03T10:35:18.671Z,1016.63
2018-06-03T10:36:18.666Z,1016.65
2018-06-03T10:37:18.679Z,1016.66
2018-06-03T10:38:18.657Z,1016.65
2018-06-03T10:39:18.653Z,1016.44
2018-06-03T10:40:18.650Z,1016.43
2018-06-03T10:41:18.649Z,1016.41
2018-06-03T10:42:18.662Z,1016.41
2018-06-03T10:43:18.658Z,1016.36
2018-06-03T10:44:18.641Z,1016.34
2018-06-03T10:45:18.651Z,1016.32
2018-06-03T10:46:18.638Z,1016.36
2018-06-03T10:47:18.632Z,1016.36
2018-06-03T10:48:18.641Z,1016.39
2018-06-03T10:49:18.624Z,1016.36
2018-06-03T10:50:18.627Z,1016.32
2018-06-03T10:51:18.612Z,1016.34
2018-06-03T10:52:18.612Z,1016.36
2018-06-03T10:53:18.609Z,1016.39
2018-06-03T10:54:18.616Z,1016.51
2018-06-03T10:55:18.628Z,1016.52
2018-06-03T10:56:18.589Z,1016.51
2018-06-03T10:57:18.580Z,1016.53
2018-06-03T10:58:18.579Z,1016.49
2018-06-03T10:59:18.577Z,1016.52
2018-06-03T11:00:18.586Z,1016.49
2018-06-03T11:01:18.572Z,1016.52
2018-06-03T11:02:18.563Z,1016.50
2018-06-03T11:03:18.562Z,1016.49
2018-06-03T11:04:18.553Z,1016.41
2018-06-03T11:05:18.580Z,1016.46
2018-06-03T11:06:18.557Z,1016.40
2018-06-03T11:07:18.553Z,1016.42
2018-06-03T11:08:18.548Z,1016.40
2018-06-03T11:09:18.548Z,1016.42
2018-06-03T11:10:18.547Z,1016.40
2018-06-03T11:11:18.563Z,1016.41
2018-06-03T11:12:18.541Z,1016.36
2018-06-03T11:13:18.548Z,1016.33
2018-06-03T11:14:18.543Z,1016.41
2018-06-03T11:15:18.542Z,1016.35
2018-06-03T11:16:18.545Z,1016.32
2018-06-03T11:17:18.557Z,1016.31
2018-06-03T11:18:18.558Z,1016.30
2018-06-03T11:19:18.543Z,1016.32
2018-06-03T11:20:18.545Z,1016.34
2018-06-03T11:21:18.560Z,1016.34
2018-06-03T11:22:18.563Z,1016.32
2018-06-03T11:23:18.569Z,1016.25
2018-06-03T11:24:18.555Z,1016.32
2018-06-03T11:25:18.555Z,1016.34
2018-06-03T11:26:18.546Z,1016.31
2018-06-03T11:27:18.547Z,1016.29
2018-06-03T11:28:18.547Z,1016.25
2018-06-03T11:29:18.572Z,1016.27
2018-06-03T11:30:18.545Z,1016.27
2018-06-03T11:31:18.552Z,1016.21
2018-06-03T11:32:18.552Z,1016.01
2018-06-03T11:33:18.553Z,1016.01
2018-06-03T11:34:18.566Z,1016.03
2018-06-03T11:35:18.574Z,1016.02
2018-06-03T11:36:18.547Z,1016.01
2018-06-03T11:37:18.549Z,1016.02
2018-06-03T11:38:18.553Z,1016.03
2018-06-03T11:39:18.560Z,1016.02
2018-06-03T11:40:18.545Z,1016.01
2018-06-03T11:41:18.584Z,1015.98
2018-06-03T11:42:18.560Z,1015.94
2018-06-03T11:43:18.546Z,1015.98
2018-06-03T11:44:18.547Z,1015.97
2018-06-03T11:45:18.558Z,1016.01
2018-06-03T11:46:18.560Z,1016.02
2018-06-03T11:47:18.537Z,1015.98
2018-06-03T11:48:18.534Z,1016.00
2018-06-03T11:49:18.534Z,1016.00
2018-06-03T11:50:18.541Z,1015.96
2018-06-03T11:51:18.522Z,1015.97
2018-06-03T11:52:18.521Z,1015.93
2018-06-03T11:53:18.515Z,1015.98
2018-06-03T11:54:18.506Z,1015.99
2018-06-03T11:55:18.507Z,1016.04
2018-06-03T11:56:18.524Z,1015.95
2018-06-03T11:57:18.503Z,1015.95
2018-06-03T11:58:18.495Z,1015.96
2018-06-03T11:59:18.491Z,1015.93
2018-06-03T12:00:18.489Z,1015.90
2018-06-03T12:02:50.525Z,1015.90
2018-06-03T12:03:50.505Z,1015.89
2018-06-03T12:04:50.514Z,1015.86
2018-06-03T12:05:50.505Z,1015.85
2018-06-03T12:06:50.510Z,1015.89